sensor_id;sensor_type;location;lat;lon;timestamp;pressure;altitude;pressure_sealevel;temperature;humidity
77112;BME280;66064;50.226;14.344;2023-12-04T00:02:17;100137.19;;;-5.64;94.02
77112;BME280;66064;50.226;14.344;2023-12-04T00:04:43;100146.69;;;-5.75;93.83
77112;BME280;66064;50.226;14.344;2023-12-04T00:07:09;100128.84;;;-5.92;93.39
77112;BME280;66064;50.226;14.344;2023-12-04T00:09:35;100148.88;;;-5.79;93.74
77112;BME280;66064;50.226;14.344;2023-12-04T00:12:00;100141.38;;;-5.76;94.37
77112;BME280;66064;50.226;14.344;2023-12-04T00:14:27;100147.72;;;-5.73;94.51
77112;BME280;66064;50.226;14.344;2023-12-04T00:16:53;100135.66;;;-5.72;95.24
77112;BME280;66064;50.226;14.344;2023-12-04T00:19:19;100142.78;;;-5.70;95.42
77112;BME280;66064;50.226;14.344;2023-12-04T00:21:45;100148.75;;;-5.81;95.27
77112;BME280;66064;50.226;14.344;2023-12-04T00:24:11;100135.75;;;-6.03;94.98
77112;BME280;66064;50.226;14.344;2023-12-04T00:26:37;100150.91;;;-6.07;95.34
77112;BME280;66064;50.226;14.344;2023-12-04T00:29:03;100135.88;;;-6.11;95.81
77112;BME280;66064;50.226;14.344;2023-12-04T00:31:29;100146.75;;;-6.05;95.84
77112;BME280;66064;50.226;14.344;2023-12-04T00:33:57;100144.41;;;-5.92;95.93
77112;BME280;66064;50.226;14.344;2023-12-04T00:36:23;100138.06;;;-5.95;95.24
77112;BME280;66064;50.226;14.344;2023-12-04T00:38:49;100129.28;;;-6.18;94.27
77112;BME280;66064;50.226;14.344;2023-12-04T00:41:15;100138.72;;;-6.28;94.75
77112;BME280;66064;50.226;14.344;2023-12-04T00:43:41;100130.69;;;-6.42;95.66
77112;BME280;66064;50.226;14.344;2023-12-04T00:46:07;100118.53;;;-6.53;95.87
77112;BME280;66064;50.226;14.344;2023-12-04T00:48:33;100139.38;;;-6.41;97.22
77112;BME280;66064;50.226;14.344;2023-12-04T00:51:06;100147.91;;;-6.42;97.44
77112;BME280;66064;50.226;14.344;2023-12-04T00:53:32;100148.28;;;-6.48;96.81
77112;BME280;66064;50.226;14.344;2023-12-04T00:55:58;100146.34;;;-6.50;96.72
77112;BME280;66064;50.226;14.344;2023-12-04T00:58:24;100140.13;;;-6.42;97.32
77112;BME280;66064;50.226;14.344;2023-12-04T01:00:49;100131.97;;;-6.57;96.95
77112;BME280;66064;50.226;14.344;2023-12-04T01:03:17;100127.78;;;-6.75;96.29
77112;BME280;66064;50.226;14.344;2023-12-04T01:05:43;100138.75;;;-6.88;94.63
77112;BME280;66064;50.226;14.344;2023-12-04T01:08:09;100144.41;;;-7.02;94.73
77112;BME280;66064;50.226;14.344;2023-12-04T01:10:35;100146.28;;;-7.20;94.74
77112;BME280;66064;50.226;14.344;2023-12-04T01:13:01;100142.06;;;-7.38;95.50
77112;BME280;66064;50.226;14.344;2023-12-04T01:15:27;100145.09;;;-7.52;96.56
77112;BME280;66064;50.226;14.344;2023-12-04T01:17:54;100158.84;;;-7.43;96.83
77112;BME280;66064;50.226;14.344;2023-12-04T01:20:20;100165.81;;;-7.42;96.90
77112;BME280;66064;50.226;14.344;2023-12-04T01:22:46;100173.84;;;-7.20;97.63
77112;BME280;66064;50.226;14.344;2023-12-04T01:25:12;100177.34;;;-7.10;97.32
77112;BME280;66064;50.226;14.344;2023-12-04T01:27:38;100173.25;;;-6.97;98.05
77112;BME280;66064;50.226;14.344;2023-12-04T01:30:06;100172.81;;;-6.83;96.02
77112;BME280;66064;50.226;14.344;2023-12-04T01:32:34;100163.88;;;-6.77;97.01
77112;BME280;66064;50.226;14.344;2023-12-04T01:35:02;100165.69;;;-6.86;96.45
77112;BME280;66064;50.226;14.344;2023-12-04T01:37:29;100151.22;;;-7.13;95.97
77112;BME280;66064;50.226;14.344;2023-12-04T01:39:55;100155.28;;;-7.35;95.49
77112;BME280;66064;50.226;14.344;2023-12-04T01:42:21;100168.66;;;-7.20;96.24
77112;BME280;66064;50.226;14.344;2023-12-04T01:44:46;100161.63;;;-7.31;95.93
77112;BME280;66064;50.226;14.344;2023-12-04T01:47:13;100175.69;;;-7.38;96.06
77112;BME280;66064;50.226;14.344;2023-12-04T01:49:39;100177.78;;;-7.34;99.10
77112;BME280;66064;50.226;14.344;2023-12-04T01:52:06;100164.91;;;-7.43;98.24
77112;BME280;66064;50.226;14.344;2023-12-04T01:54:32;100155.38;;;-7.62;97.27
77112;BME280;66064;50.226;14.344;2023-12-04T01:56:58;100152.25;;;-7.68;96.53
77112;BME280;66064;50.226;14.344;2023-12-04T01:59:25;100166.41;;;-7.73;96.33
77112;BME280;66064;50.226;14.344;2023-12-04T02:01:52;100162.59;;;-7.87;95.29
77112;BME280;66064;50.226;14.344;2023-12-04T02:04:18;100153.75;;;-8.27;94.76
77112;BME280;66064;50.226;14.344;2023-12-04T02:06:44;100150.28;;;-8.46;95.36
77112;BME280;66064;50.226;14.344;2023-12-04T02:09:10;100159.09;;;-8.44;95.40
77112;BME280;66064;50.226;14.344;2023-12-04T02:11:42;100155.69;;;-8.62;95.62
77112;BME280;66064;50.226;14.344;2023-12-04T02:14:07;100158.50;;;-8.77;95.71
77112;BME280;66064;50.226;14.344;2023-12-04T02:16:39;100146.16;;;-8.71;97.25
77112;BME280;66064;50.226;14.344;2023-12-04T02:19:07;100144.53;;;-8.52;98.17
77112;BME280;66064;50.226;14.344;2023-12-04T02:21:35;100143.19;;;-8.57;97.25
77112;BME280;66064;50.226;14.344;2023-12-04T02:24:00;100129.44;;;-8.66;97.06
77112;BME280;66064;50.226;14.344;2023-12-04T02:26:34;100141.13;;;-8.61;97.05
77112;BME280;66064;50.226;14.344;2023-12-04T02:29:07;100146.28;;;-8.61;95.85
77112;BME280;66064;50.226;14.344;2023-12-04T02:31:39;100120.59;;;-8.87;95.85
77112;BME280;66064;50.226;14.344;2023-12-04T02:34:07;100138.94;;;-8.84;95.21
77112;BME280;66064;50.226;14.344;2023-12-04T02:36:35;100125.03;;;-8.95;95.63
77112;BME280;66064;50.226;14.344;2023-12-04T02:39:02;100131.88;;;-8.68;95.50
77112;BME280;66064;50.226;14.344;2023-12-04T02:41:28;100113.53;;;-8.71;95.87
77112;BME280;66064;50.226;14.344;2023-12-04T02:43:54;100118.75;;;-8.79;96.09
77112;BME280;66064;50.226;14.344;2023-12-04T02:46:20;100134.31;;;-8.69;96.42
77112;BME280;66064;50.226;14.344;2023-12-04T02:48:46;100136.19;;;-8.77;96.99
77112;BME280;66064;50.226;14.344;2023-12-04T02:51:13;100141.06;;;-8.89;97.11
77112;BME280;66064;50.226;14.344;2023-12-04T02:53:39;100143.81;;;-8.87;97.09
77112;BME280;66064;50.226;14.344;2023-12-04T02:56:05;100114.31;;;-9.08;96.78
77112;BME280;66064;50.226;14.344;2023-12-04T02:58:31;100131.75;;;-9.05;97.19
77112;BME280;66064;50.226;14.344;2023-12-04T03:01:00;100124.50;;;-9.09;97.11
77112;BME280;66064;50.226;14.344;2023-12-04T03:03:25;100091.22;;;-9.34;97.05
77112;BME280;66064;50.226;14.344;2023-12-04T03:05:52;100117.59;;;-9.28;96.47
77112;BME280;66064;50.226;14.344;2023-12-04T03:08:17;100122.16;;;-9.34;96.95
77112;BME280;66064;50.226;14.344;2023-12-04T03:10:44;100128.50;;;-9.39;96.65
77112;BME280;66064;50.226;14.344;2023-12-04T03:13:10;100127.44;;;-9.41;96.51
77112;BME280;66064;50.226;14.344;2023-12-04T03:15:36;100111.22;;;-9.40;96.73
77112;BME280;66064;50.226;14.344;2023-12-04T03:18:02;100099.72;;;-9.35;96.92
77112;BME280;66064;50.226;14.344;2023-12-04T03:20:28;100097.72;;;-9.29;97.92
77112;BME280;66064;50.226;14.344;2023-12-04T03:22:54;100095.75;;;-9.31;97.53
77112;BME280;66064;50.226;14.344;2023-12-04T03:25:20;100082.47;;;-9.44;97.36
77112;BME280;66064;50.226;14.344;2023-12-04T03:27:46;100080.97;;;-9.42;97.53
77112;BME280;66064;50.226;14.344;2023-12-04T03:30:13;100083.53;;;-9.51;97.25
77112;BME280;66064;50.226;14.344;2023-12-04T03:32:40;100072.81;;;-9.73;97.24
77112;BME280;66064;50.226;14.344;2023-12-04T03:35:06;100098.31;;;-9.76;97.16
77112;BME280;66064;50.226;14.344;2023-12-04T03:37:32;100064.06;;;-9.83;98.13
77112;BME280;66064;50.226;14.344;2023-12-04T03:39:59;100094.94;;;-9.66;97.90
77112;BME280;66064;50.226;14.344;2023-12-04T03:42:25;100095.84;;;-9.66;97.90
77112;BME280;66064;50.226;14.344;2023-12-04T03:44:51;100093.75;;;-9.70;98.37
77112;BME280;66064;50.226;14.344;2023-12-04T03:47:17;100091.63;;;-9.65;98.81
77112;BME280;66064;50.226;14.344;2023-12-04T03:49:43;100071.16;;;-9.64;99.70
77112;BME280;66064;50.226;14.344;2023-12-04T03:52:09;100088.88;;;-9.58;99.68
77112;BME280;66064;50.226;14.344;2023-12-04T03:54:35;100089.03;;;-9.65;98.95
77112;BME280;66064;50.226;14.344;2023-12-04T03:57:01;100080.09;;;-9.60;98.94
77112;BME280;66064;50.226;14.344;2023-12-04T03:59:27;100074.50;;;-9.65;98.22
77112;BME280;66064;50.226;14.344;2023-12-04T04:01:53;100061.19;;;-9.86;97.33
77112;BME280;66064;50.226;14.344;2023-12-04T04:04:19;100065.28;;;-9.80;97.66
77112;BME280;66064;50.226;14.344;2023-12-04T04:06:45;100072.25;;;-9.88;97.12
77112;BME280;66064;50.226;14.344;2023-12-04T04:09:11;100062.72;;;-9.89;97.52
77112;BME280;66064;50.226;14.344;2023-12-04T04:11:38;100072.00;;;-9.91;97.29
77112;BME280;66064;50.226;14.344;2023-12-04T04:14:04;100068.50;;;-9.91;96.88
77112;BME280;66064;50.226;14.344;2023-12-04T04:16:30;100086.19;;;-9.85;97.33
77112;BME280;66064;50.226;14.344;2023-12-04T04:18:56;100088.19;;;-9.92;97.47
77112;BME280;66064;50.226;14.344;2023-12-04T04:21:22;100067.44;;;-10.02;97.79
77112;BME280;66064;50.226;14.344;2023-12-04T04:23:48;100085.88;;;-9.89;97.87
77112;BME280;66064;50.226;14.344;2023-12-04T04:26:14;100086.53;;;-9.91;97.85
77112;BME280;66064;50.226;14.344;2023-12-04T04:28:40;100068.97;;;-10.12;97.25
77112;BME280;66064;50.226;14.344;2023-12-04T04:31:06;100088.34;;;-10.07;97.24
77112;BME280;66064;50.226;14.344;2023-12-04T04:33:32;100065.78;;;-10.10;97.98
77112;BME280;66064;50.226;14.344;2023-12-04T04:35:57;100087.72;;;-10.05;97.69
77112;BME280;66064;50.226;14.344;2023-12-04T04:38:23;100083.63;;;-10.03;97.93
77112;BME280;66064;50.226;14.344;2023-12-04T04:40:49;100086.81;;;-9.97;98.24
77112;BME280;66064;50.226;14.344;2023-12-04T04:43:15;100084.69;;;-10.01;98.31
77112;BME280;66064;50.226;14.344;2023-12-04T04:45:41;100074.09;;;-10.04;97.60
77112;BME280;66064;50.226;14.344;2023-12-04T04:48:07;100075.63;;;-10.14;98.06
77112;BME280;66064;50.226;14.344;2023-12-04T04:50:33;100065.03;;;-10.17;98.63
77112;BME280;66064;50.226;14.344;2023-12-04T04:53:00;100077.16;;;-10.08;99.33
77112;BME280;66064;50.226;14.344;2023-12-04T04:55:25;100079.41;;;-10.11;99.71
77112;BME280;66064;50.226;14.344;2023-12-04T04:57:52;100082.00;;;-10.19;100.00
77112;BME280;66064;50.226;14.344;2023-12-04T05:00:18;100051.91;;;-10.29;100.00
77112;BME280;66064;50.226;14.344;2023-12-04T05:02:45;100077.28;;;-10.15;100.00
77112;BME280;66064;50.226;14.344;2023-12-04T05:05:11;100086.38;;;-10.10;100.00
77112;BME280;66064;50.226;14.344;2023-12-04T05:07:37;100088.34;;;-10.16;99.88
77112;BME280;66064;50.226;14.344;2023-12-04T05:10:03;100088.81;;;-10.20;99.71
77112;BME280;66064;50.226;14.344;2023-12-04T05:12:29;100090.75;;;-10.17;98.89
77112;BME280;66064;50.226;14.344;2023-12-04T05:14:55;100084.16;;;-10.24;98.98
77112;BME280;66064;50.226;14.344;2023-12-04T05:17:21;100095.47;;;-10.13;99.06
77112;BME280;66064;50.226;14.344;2023-12-04T05:19:47;100082.59;;;-10.13;99.12
77112;BME280;66064;50.226;14.344;2023-12-04T05:22:15;100083.41;;;-10.23;98.26
77112;BME280;66064;50.226;14.344;2023-12-04T05:24:41;100082.31;;;-10.34;97.62
77112;BME280;66064;50.226;14.344;2023-12-04T05:27:07;100075.81;;;-10.30;97.42
77112;BME280;66064;50.226;14.344;2023-12-04T05:29:33;100069.78;;;-10.39;97.17
77112;BME280;66064;50.226;14.344;2023-12-04T05:31:59;100054.31;;;-10.48;96.86
77112;BME280;66064;50.226;14.344;2023-12-04T05:34:25;100066.28;;;-10.48;96.81
77112;BME280;66064;50.226;14.344;2023-12-04T05:36:51;100056.59;;;-10.59;96.86
77112;BME280;66064;50.226;14.344;2023-12-04T05:39:17;100075.38;;;-10.43;98.10
77112;BME280;66064;50.226;14.344;2023-12-04T05:41:43;100065.06;;;-10.43;97.33
77112;BME280;66064;50.226;14.344;2023-12-04T05:44:09;100053.59;;;-10.55;97.47
77112;BME280;66064;50.226;14.344;2023-12-04T05:46:36;100058.25;;;-10.51;96.58
77112;BME280;66064;50.226;14.344;2023-12-04T05:49:02;100040.41;;;-10.58;96.89
77112;BME280;66064;50.226;14.344;2023-12-04T05:51:28;100051.16;;;-10.45;96.45
77112;BME280;66064;50.226;14.344;2023-12-04T05:53:53;100047.19;;;-10.50;96.39
77112;BME280;66064;50.226;14.344;2023-12-04T05:56:20;100037.69;;;-10.60;96.41
77112;BME280;66064;50.226;14.344;2023-12-04T05:58:45;100047.66;;;-10.46;96.97
77112;BME280;66064;50.226;14.344;2023-12-04T06:01:12;100038.72;;;-10.67;95.44
77112;BME280;66064;50.226;14.344;2023-12-04T06:03:37;100042.06;;;-10.50;96.10
77112;BME280;66064;50.226;14.344;2023-12-04T06:06:04;100052.66;;;-10.47;96.16
77112;BME280;66064;50.226;14.344;2023-12-04T06:08:29;100042.06;;;-10.50;96.22
77112;BME280;66064;50.226;14.344;2023-12-04T06:10:58;100030.56;;;-10.45;96.73
77112;BME280;66064;50.226;14.344;2023-12-04T06:13:23;100033.44;;;-10.34;96.47
77112;BME280;66064;50.226;14.344;2023-12-04T06:15:49;100028.13;;;-10.35;96.74
77112;BME280;66064;50.226;14.344;2023-12-04T06:18:15;100040.56;;;-10.40;96.28
77112;BME280;66064;50.226;14.344;2023-12-04T06:20:42;100013.31;;;-10.46;96.50
77112;BME280;66064;50.226;14.344;2023-12-04T06:23:08;100044.31;;;-10.36;96.53
77112;BME280;66064;50.226;14.344;2023-12-04T06:25:34;100034.22;;;-10.43;95.74
77112;BME280;66064;50.226;14.344;2023-12-04T06:28:00;100033.44;;;-10.59;94.55
77112;BME280;66064;50.226;14.344;2023-12-04T06:30:27;100032.69;;;-10.58;95.14
77112;BME280;66064;50.226;14.344;2023-12-04T06:32:53;100036.91;;;-10.50;95.08
77112;BME280;66064;50.226;14.344;2023-12-04T06:35:19;100018.59;;;-10.53;95.49
77112;BME280;66064;50.226;14.344;2023-12-04T06:37:47;100039.94;;;-10.37;95.83
77112;BME280;66064;50.226;14.344;2023-12-04T06:40:14;100034.53;;;-10.40;95.34
77112;BME280;66064;50.226;14.344;2023-12-04T06:42:40;100028.44;;;-10.49;94.36
77112;BME280;66064;50.226;14.344;2023-12-04T06:45:07;100014.22;;;-10.54;95.20
77112;BME280;66064;50.226;14.344;2023-12-04T06:47:34;100026.94;;;-10.30;96.33
77112;BME280;66064;50.226;14.344;2023-12-04T06:50:00;100007.56;;;-10.35;96.71
77112;BME280;66064;50.226;14.344;2023-12-04T06:52:26;100020.75;;;-10.23;96.98
77112;BME280;66064;50.226;14.344;2023-12-04T06:54:52;100025.50;;;-10.18;96.04
77112;BME280;66064;50.226;14.344;2023-12-04T06:57:19;100005.28;;;-10.23;95.90
77112;BME280;66064;50.226;14.344;2023-12-04T06:59:45;100001.59;;;-10.17;95.28
77112;BME280;66064;50.226;14.344;2023-12-04T07:02:11;100013.25;;;-10.12;94.40
77112;BME280;66064;50.226;14.344;2023-12-04T07:04:37;100015.06;;;-10.11;94.08
77112;BME280;66064;50.226;14.344;2023-12-04T07:07:03;100009.44;;;-9.98;93.62
77112;BME280;66064;50.226;14.344;2023-12-04T07:09:33;100006.25;;;-9.96;94.02
77112;BME280;66064;50.226;14.344;2023-12-04T07:12:00;100003.22;;;-9.92;93.87
77112;BME280;66064;50.226;14.344;2023-12-04T07:14:28;99998.84;;;-9.93;93.69
77112;BME280;66064;50.226;14.344;2023-12-04T07:16:54;99990.63;;;-9.89;92.83
77112;BME280;66064;50.226;14.344;2023-12-04T07:19:21;100006.50;;;-9.75;92.41
77112;BME280;66064;50.226;14.344;2023-12-04T07:21:47;100001.31;;;-9.58;92.18
77112;BME280;66064;50.226;14.344;2023-12-04T07:24:14;99989.38;;;-9.39;90.84
77112;BME280;66064;50.226;14.344;2023-12-04T07:26:39;99991.78;;;-9.32;90.00
77112;BME280;66064;50.226;14.344;2023-12-04T07:29:07;100002.38;;;-9.29;88.76
77112;BME280;66064;50.226;14.344;2023-12-04T07:31:33;99998.91;;;-9.38;88.84
77112;BME280;66064;50.226;14.344;2023-12-04T07:33:59;99991.06;;;-9.12;88.54
77112;BME280;66064;50.226;14.344;2023-12-04T07:36:28;99992.69;;;-8.85;87.65
77112;BME280;66064;50.226;14.344;2023-12-04T07:38:54;99980.44;;;-8.69;87.63
77112;BME280;66064;50.226;14.344;2023-12-04T07:41:21;100000.38;;;-8.58;86.50
77112;BME280;66064;50.226;14.344;2023-12-04T07:43:47;99998.47;;;-8.60;87.27
77112;BME280;66064;50.226;14.344;2023-12-04T07:46:13;99989.38;;;-8.65;87.36
77112;BME280;66064;50.226;14.344;2023-12-04T07:48:43;99976.69;;;-8.54;86.32
77112;BME280;66064;50.226;14.344;2023-12-04T07:51:10;99990.16;;;-8.19;85.89
77112;BME280;66064;50.226;14.344;2023-12-04T07:53:37;99981.59;;;-8.28;87.05
77112;BME280;66064;50.226;14.344;2023-12-04T07:56:04;99987.75;;;-8.07;86.55
77112;BME280;66064;50.226;14.344;2023-12-04T07:58:31;99978.13;;;-7.89;86.78
77112;BME280;66064;50.226;14.344;2023-12-04T08:00:58;99974.31;;;-7.74;86.81
77112;BME280;66064;50.226;14.344;2023-12-04T08:03:25;99970.34;;;-7.60;86.30
77112;BME280;66064;50.226;14.344;2023-12-04T08:05:51;99949.22;;;-7.26;86.85
77112;BME280;66064;50.226;14.344;2023-12-04T08:08:17;99970.31;;;-7.11;86.40
77112;BME280;66064;50.226;14.344;2023-12-04T08:10:43;99973.97;;;-6.99;84.65
77112;BME280;66064;50.226;14.344;2023-12-04T08:13:10;99974.84;;;-7.19;85.77
77112;BME280;66064;50.226;14.344;2023-12-04T08:15:36;99947.94;;;-7.11;86.17
77112;BME280;66064;50.226;14.344;2023-12-04T08:18:03;99961.13;;;-6.97;85.96
77112;BME280;66064;50.226;14.344;2023-12-04T08:20:29;99956.19;;;-6.64;85.39
77112;BME280;66064;50.226;14.344;2023-12-04T08:22:55;99948.50;;;-6.00;83.75
77112;BME280;66064;50.226;14.344;2023-12-04T08:25:22;99937.81;;;-5.39;82.03
77112;BME280;66064;50.226;14.344;2023-12-04T08:27:48;99937.88;;;-4.94;78.16
77112;BME280;66064;50.226;14.344;2023-12-04T08:30:15;99950.03;;;-4.71;78.24
77112;BME280;66064;50.226;14.344;2023-12-04T08:32:41;99943.50;;;-4.54;76.08
77112;BME280;66064;50.226;14.344;2023-12-04T08:35:07;99934.38;;;-4.26;74.07
77112;BME280;66064;50.226;14.344;2023-12-04T08:37:33;99943.50;;;-4.31;74.99
77112;BME280;66064;50.226;14.344;2023-12-04T08:39:59;99933.75;;;-3.75;74.08
77112;BME280;66064;50.226;14.344;2023-12-04T08:42:25;99949.38;;;-4.34;75.13
77112;BME280;66064;50.226;14.344;2023-12-04T08:44:52;99938.53;;;-4.16;74.41
77112;BME280;66064;50.226;14.344;2023-12-04T08:47:18;99941.69;;;-3.74;73.30
77112;BME280;66064;50.226;14.344;2023-12-04T08:49:43;99946.28;;;-4.63;74.97
77112;BME280;66064;50.226;14.344;2023-12-04T08:52:10;99951.84;;;-4.00;75.80
77112;BME280;66064;50.226;14.344;2023-12-04T08:54:39;99947.78;;;-3.85;72.63
77112;BME280;66064;50.226;14.344;2023-12-04T08:57:09;99937.25;;;-3.38;73.77
77112;BME280;66064;50.226;14.344;2023-12-04T08:59:35;99925.25;;;-3.25;71.01
77112;BME280;66064;50.226;14.344;2023-12-04T09:02:01;99927.56;;;-2.27;69.22
77112;BME280;66064;50.226;14.344;2023-12-04T09:04:31;99932.28;;;-2.48;68.19
77112;BME280;66064;50.226;14.344;2023-12-04T09:06:58;99905.84;;;-1.60;67.37
77112;BME280;66064;50.226;14.344;2023-12-04T09:09:24;99919.00;;;-1.17;64.59
77112;BME280;66064;50.226;14.344;2023-12-04T09:11:50;99910.34;;;-1.44;65.17
77112;BME280;66064;50.226;14.344;2023-12-04T09:14:16;99904.56;;;-1.25;62.89
77112;BME280;66064;50.226;14.344;2023-12-04T09:16:42;99900.69;;;-0.16;62.63
77112;BME280;66064;50.226;14.344;2023-12-04T09:19:08;99909.34;;;-0.02;61.28
77112;BME280;66064;50.226;14.344;2023-12-04T09:21:36;99892.66;;;0.27;59.95
77112;BME280;66064;50.226;14.344;2023-12-04T09:24:02;99888.16;;;0.24;59.69
77112;BME280;66064;50.226;14.344;2023-12-04T09:26:28;99892.09;;;0.16;59.83
77112;BME280;66064;50.226;14.344;2023-12-04T09:28:55;99896.50;;;0.03;57.96
77112;BME280;66064;50.226;14.344;2023-12-04T09:31:21;99882.16;;;0.11;60.46
77112;BME280;66064;50.226;14.344;2023-12-04T09:33:47;99885.34;;;0.52;58.25
77112;BME280;66064;50.226;14.344;2023-12-04T09:36:13;99876.25;;;-0.02;58.13
77112;BME280;66064;50.226;14.344;2023-12-04T09:38:39;99882.06;;;-0.66;59.43
77112;BME280;66064;50.226;14.344;2023-12-04T09:41:06;99867.41;;;0.27;58.35
77112;BME280;66064;50.226;14.344;2023-12-04T09:43:35;99874.50;;;0.14;59.71
77112;BME280;66064;50.226;14.344;2023-12-04T09:46:02;99863.72;;;0.40;59.25
77112;BME280;66064;50.226;14.344;2023-12-04T09:48:30;99859.59;;;0.13;60.58
77112;BME280;66064;50.226;14.344;2023-12-04T09:50:57;99858.50;;;0.40;59.17
77112;BME280;66064;50.226;14.344;2023-12-04T09:53:26;99851.28;;;0.36;58.43
77112;BME280;66064;50.226;14.344;2023-12-04T09:55:57;99840.09;;;1.37;55.15
77112;BME280;66064;50.226;14.344;2023-12-04T09:58:27;99831.91;;;1.31;56.00
77112;BME280;66064;50.226;14.344;2023-12-04T10:00:56;99828.63;;;1.35;54.63
77112;BME280;66064;50.226;14.344;2023-12-04T10:03:24;99803.56;;;2.13;53.71
77112;BME280;66064;50.226;14.344;2023-12-04T10:05:54;99811.84;;;2.03;54.22
77112;BME280;66064;50.226;14.344;2023-12-04T10:08:20;99786.75;;;2.46;52.93
77112;BME280;66064;50.226;14.344;2023-12-04T10:10:47;99796.25;;;2.62;52.75
77112;BME280;66064;50.226;14.344;2023-12-04T10:13:13;99786.97;;;2.90;51.93
77112;BME280;66064;50.226;14.344;2023-12-04T10:15:47;99784.47;;;1.98;52.73
77112;BME280;66064;50.226;14.344;2023-12-04T10:20:53;99785.25;;;0.90;57.02
77112;BME280;66064;50.226;14.344;2023-12-04T10:23:20;99779.34;;;1.64;56.18
77112;BME280;66064;50.226;14.344;2023-12-04T10:25:49;99775.75;;;0.92;56.79
77112;BME280;66064;50.226;14.344;2023-12-04T10:28:17;99773.06;;;1.43;56.21
77112;BME280;66064;50.226;14.344;2023-12-04T10:30:43;99758.31;;;2.56;53.44
77112;BME280;66064;50.226;14.344;2023-12-04T10:33:11;99755.91;;;3.42;51.97
77112;BME280;66064;50.226;14.344;2023-12-04T10:35:39;99747.22;;;4.32;50.78
77112;BME280;66064;50.226;14.344;2023-12-04T10:38:06;99756.16;;;4.36;49.55
77112;BME280;66064;50.226;14.344;2023-12-04T10:40:36;99746.44;;;5.32;47.64
77112;BME280;66064;50.226;14.344;2023-12-04T10:43:22;99755.91;;;5.79;45.75
77112;BME280;66064;50.226;14.344;2023-12-04T10:45:49;99744.91;;;5.40;45.19
77112;BME280;66064;50.226;14.344;2023-12-04T10:48:17;99751.31;;;5.46;46.22
77112;BME280;66064;50.226;14.344;2023-12-04T10:50:45;99732.50;;;6.46;44.73
77112;BME280;66064;50.226;14.344;2023-12-04T10:53:13;99728.34;;;6.26;45.20
77112;BME280;66064;50.226;14.344;2023-12-04T10:55:41;99729.53;;;5.53;45.32
77112;BME280;66064;50.226;14.344;2023-12-04T10:58:12;99724.75;;;5.42;46.16
77112;BME280;66064;50.226;14.344;2023-12-04T11:00:44;99715.25;;;5.74;45.46
77112;BME280;66064;50.226;14.344;2023-12-04T11:03:36;99728.66;;;4.77;47.49
77112;BME280;66064;50.226;14.344;2023-12-04T11:06:08;99729.34;;;4.71;47.99
77112;BME280;66064;50.226;14.344;2023-12-04T11:08:36;99725.69;;;3.32;50.51
77112;BME280;66064;50.226;14.344;2023-12-04T11:11:08;99736.38;;;2.17;53.36
77112;BME280;66064;50.226;14.344;2023-12-04T11:13:40;99732.50;;;1.18;56.26
77112;BME280;66064;50.226;14.344;2023-12-04T11:16:17;99716.66;;;0.31;58.46
77112;BME280;66064;50.226;14.344;2023-12-04T11:18:51;99702.75;;;-0.17;60.06
77112;BME280;66064;50.226;14.344;2023-12-04T11:21:19;99710.28;;;0.10;61.74
77112;BME280;66064;50.226;14.344;2023-12-04T11:23:47;99712.88;;;-0.23;61.63
77112;BME280;66064;50.226;14.344;2023-12-04T11:26:14;99697.09;;;0.08;61.45
77112;BME280;66064;50.226;14.344;2023-12-04T11:28:42;99688.91;;;0.18;61.75
77112;BME280;66064;50.226;14.344;2023-12-04T11:31:09;99670.34;;;0.46;60.03
77112;BME280;66064;50.226;14.344;2023-12-04T11:33:36;99688.50;;;-0.22;62.01
77112;BME280;66064;50.226;14.344;2023-12-04T11:36:21;99678.38;;;0.00;63.40
77112;BME280;66064;50.226;14.344;2023-12-04T11:38:48;99670.44;;;0.31;62.18
77112;BME280;66064;50.226;14.344;2023-12-04T11:41:24;99656.97;;;-0.25;64.31
77112;BME280;66064;50.226;14.344;2023-12-04T11:43:52;99663.94;;;-0.56;64.26
77112;BME280;66064;50.226;14.344;2023-12-04T11:46:22;99662.28;;;-0.71;66.38
77112;BME280;66064;50.226;14.344;2023-12-04T11:48:50;99647.56;;;-0.38;65.31
77112;BME280;66064;50.226;14.344;2023-12-04T11:54:09;99632.06;;;-0.96;67.22
77112;BME280;66064;50.226;14.344;2023-12-04T11:56:35;99621.09;;;-1.06;67.99
77112;BME280;66064;50.226;14.344;2023-12-04T11:59:06;99617.28;;;-1.42;69.71
77112;BME280;66064;50.226;14.344;2023-12-04T12:01:36;99610.25;;;-1.43;70.04
77112;BME280;66064;50.226;14.344;2023-12-04T12:04:06;99600.25;;;-0.89;69.56
77112;BME280;66064;50.226;14.344;2023-12-04T12:06:32;99584.16;;;-0.66;67.59
77112;BME280;66064;50.226;14.344;2023-12-04T12:08:58;99580.13;;;-0.59;66.42
77112;BME280;66064;50.226;14.344;2023-12-04T12:11:25;99578.16;;;-0.15;67.52
77112;BME280;66064;50.226;14.344;2023-12-04T12:13:55;99575.44;;;0.34;65.61
77112;BME280;66064;50.226;14.344;2023-12-04T12:16:21;99574.78;;;0.38;65.70
77112;BME280;66064;50.226;14.344;2023-12-04T12:18:47;99560.03;;;1.29;63.48
77112;BME280;66064;50.226;14.344;2023-12-04T12:21:14;99570.38;;;1.08;63.08
77112;BME280;66064;50.226;14.344;2023-12-04T12:23:40;99578.00;;;1.21;62.70
77112;BME280;66064;50.226;14.344;2023-12-04T12:26:08;99575.78;;;2.06;60.38
77112;BME280;66064;50.226;14.344;2023-12-04T12:28:35;99565.56;;;2.74;59.51
77112;BME280;66064;50.226;14.344;2023-12-04T12:31:03;99549.47;;;3.32;56.67
77112;BME280;66064;50.226;14.344;2023-12-04T12:33:29;99544.44;;;3.16;57.34
77112;BME280;66064;50.226;14.344;2023-12-04T12:35:57;99536.19;;;3.29;56.94
77112;BME280;66064;50.226;14.344;2023-12-04T12:38:25;99538.66;;;2.38;58.40
77112;BME280;66064;50.226;14.344;2023-12-04T12:40:51;99543.38;;;2.05;58.37
77112;BME280;66064;50.226;14.344;2023-12-04T12:43:20;99535.19;;;1.59;60.95
77112;BME280;66064;50.226;14.344;2023-12-04T12:45:49;99540.25;;;1.18;61.52
77112;BME280;66064;50.226;14.344;2023-12-04T12:48:16;99532.94;;;1.11;62.70